createdAt,value
2019-05-23T00:02:50.447Z,3.77
2019-05-23T00:05:42.398Z,3.73
2019-05-23T00:08:32.501Z,4.20
2019-05-23T00:11:22.148Z,3.83
2019-05-23T00:14:00.219Z,4.17
2019-05-23T00:16:31.959Z,3.43
2019-05-23T00:19:04.923Z,4.10
2019-05-23T00:21:37.521Z,3.67
2019-05-23T00:24:08.358Z,3.93
2019-05-23T00:26:41.321Z,5.77
2019-05-23T00:29:12.336Z,3.37
2019-05-23T00:31:50.437Z,4.10
2019-05-23T00:34:21.631Z,3.73
2019-05-23T00:36:54.454Z,4.17
2019-05-23T00:39:24.985Z,5.23
2019-05-23T00:41:56.567Z,4.47
2019-05-23T00:44:27.852Z,4.97
2019-05-23T00:46:58.920Z,4.93
2019-05-23T00:49:29.298Z,5.13
2019-05-23T00:51:59.797Z,5.43
2019-05-23T00:54:30.596Z,4.40
2019-05-23T00:57:02.351Z,5.20
2019-05-23T00:59:32.892Z,4.83
2019-05-23T01:02:06.204Z,4.83
2019-05-23T01:04:37.708Z,4.93
2019-05-23T01:07:10.366Z,5.10
2019-05-23T01:09:42.762Z,5.00
2019-05-23T01:12:14.210Z,5.17
2019-05-23T01:14:44.761Z,5.33
2019-05-23T01:17:17.675Z,5.67
2019-05-23T01:19:48.819Z,5.30
2019-05-23T01:22:19.060Z,5.97
2019-05-23T01:24:51.547Z,5.57
2019-05-23T01:27:22.179Z,5.00
2019-05-23T01:29:53.359Z,5.57
2019-05-23T01:32:37.672Z,5.77
2019-05-23T01:35:14.756Z,5.70
2019-05-23T01:37:47.266Z,6.10
2019-05-23T01:40:18.028Z,5.73
2019-05-23T01:42:49.615Z,6.17
2019-05-23T01:45:20.732Z,6.10
2019-05-23T01:47:51.323Z,5.57
2019-05-23T01:50:33.714Z,5.63
2019-05-23T01:53:04.505Z,5.83
2019-05-23T01:55:35.055Z,5.20
2019-05-23T01:58:06.849Z,5.20
2019-05-23T02:00:38.696Z,5.47
2019-05-23T02:03:09.302Z,5.77
2019-05-23T02:05:40.308Z,5.83
2019-05-23T02:08:13.945Z,5.93
2019-05-23T02:10:44.854Z,5.40
2019-05-23T02:13:15.890Z,5.07
2019-05-23T02:15:46.831Z,6.10
2019-05-23T02:18:17.604Z,5.60
2019-05-23T02:20:48.498Z,6.10
2019-05-23T02:23:19.818Z,5.87
2019-05-23T02:25:49.870Z,6.27
2019-05-23T02:28:21.012Z,5.07
2019-05-23T02:30:55.045Z,5.03
2019-05-23T02:33:26.709Z,5.83
2019-05-23T02:35:58.636Z,5.67
2019-05-23T02:38:47.289Z,5.53
2019-05-23T02:41:31.181Z,5.07
2019-05-23T02:44:07.239Z,5.27
2019-05-23T02:46:47.563Z,5.50
2019-05-23T02:49:21.264Z,4.77
2019-05-23T02:51:53.486Z,5.30
2019-05-23T02:54:26.671Z,5.10
2019-05-23T02:57:00.612Z,5.57
2019-05-23T02:59:43.046Z,5.30
2019-05-23T03:02:39.547Z,6.20
2019-05-23T03:05:12.173Z,5.53
2019-05-23T03:07:44.563Z,5.77
2019-05-23T03:10:16.692Z,6.17
2019-05-23T03:12:49.518Z,6.23
2019-05-23T03:15:19.976Z,5.80
2019-05-23T03:17:54.460Z,6.03
2019-05-23T03:20:26.988Z,6.50
2019-05-23T03:23:04.596Z,6.90
2019-05-23T03:26:19.381Z,6.77
2019-05-23T03:28:50.221Z,6.90
2019-05-23T03:31:34.387Z,6.70
2019-05-23T03:34:05.694Z,6.93
2019-05-23T03:36:38.232Z,6.17
2019-05-23T03:39:11.337Z,5.83
2019-05-23T03:41:41.738Z,6.10
2019-05-23T03:44:13.720Z,6.33
2019-05-23T03:46:46.192Z,6.37
2019-05-23T03:49:17.867Z,5.97
2019-05-23T03:51:48.247Z,6.53
2019-05-23T03:54:19.045Z,6.20
2019-05-23T03:56:49.973Z,5.47
2019-05-23T03:59:22.489Z,6.77
2019-05-23T04:01:54.713Z,6.33
2019-05-23T04:04:26.005Z,6.20
2019-05-23T04:06:57.609Z,6.70
2019-05-23T04:09:27.965Z,6.27
2019-05-23T04:11:58.443Z,6.80
2019-05-23T04:14:29.925Z,7.27
2019-05-23T04:17:00.666Z,7.30
2019-05-23T04:19:31.014Z,7.43
2019-05-23T04:22:01.442Z,7.90
2019-05-23T04:24:31.656Z,7.07
2019-05-23T04:27:01.995Z,7.47
2019-05-23T04:29:32.517Z,8.80
2019-05-23T04:32:08.421Z,7.30
2019-05-23T04:34:36.337Z,7.80
2019-05-23T04:37:06.509Z,7.60
2019-05-23T04:39:37.523Z,7.83
2019-05-23T04:42:08.861Z,8.20
2019-05-23T04:44:43.688Z,7.67
2019-05-23T04:47:12.812Z,8.10
2019-05-23T04:49:44.296Z,8.93
2019-05-23T04:52:14.868Z,7.87
2019-05-23T04:54:45.153Z,8.20
2019-05-23T04:57:17.283Z,9.53
2019-05-23T04:59:49.281Z,8.10
2019-05-23T05:02:26.403Z,7.70
2019-05-23T05:04:54.331Z,7.83
2019-05-23T05:07:26.730Z,8.50
2019-05-23T05:09:56.865Z,8.30
2019-05-23T05:12:27.801Z,8.90
2019-05-23T05:14:59.074Z,8.27
2019-05-23T05:17:29.785Z,8.90
2019-05-23T05:19:59.863Z,8.77
2019-05-23T05:22:30.164Z,8.50
2019-05-23T05:25:00.323Z,9.27
2019-05-23T05:27:30.962Z,8.80
2019-05-23T05:30:01.324Z,8.97
2019-05-23T05:32:43.942Z,8.17
2019-05-23T05:35:03.775Z,8.70
2019-05-23T05:37:34.180Z,8.53
2019-05-23T05:40:06.490Z,7.83
2019-05-23T05:42:37.786Z,7.72
2019-05-23T05:45:11.496Z,8.08
2019-05-23T05:47:42.925Z,7.87
2019-05-23T05:50:14.468Z,8.27
2019-05-23T05:52:44.966Z,8.53
2019-05-23T05:55:15.612Z,7.97
2019-05-23T05:57:45.818Z,8.03
2019-05-23T06:00:35.694Z,8.53
2019-05-23T06:03:06.294Z,8.30
2019-05-23T06:05:46.815Z,8.68
2019-05-23T06:08:17.713Z,8.53
2019-05-23T06:10:48.294Z,8.40
2019-05-23T06:13:18.740Z,8.60
2019-05-23T06:15:49.575Z,7.83
2019-05-23T06:18:20.162Z,7.80
2019-05-23T06:20:50.885Z,8.38
2019-05-23T06:23:21.155Z,8.93
2019-05-23T06:25:51.432Z,8.07
2019-05-23T06:28:22.319Z,8.20
2019-05-23T06:30:52.628Z,8.33
2019-05-23T06:33:24.342Z,9.55
2019-05-23T06:35:55.310Z,8.00
2019-05-23T06:38:26.724Z,8.80
2019-05-23T06:40:57.004Z,8.80
2019-05-23T06:43:28.404Z,9.13
2019-05-23T06:45:58.901Z,8.65
2019-05-23T06:48:30.049Z,9.70
2019-05-23T06:51:00.538Z,9.23
2019-05-23T06:53:30.826Z,8.80
2019-05-23T06:56:01.235Z,10.07
2019-05-23T06:58:31.842Z,10.05
2019-05-23T07:01:02.147Z,9.60
2019-05-23T07:03:42.317Z,8.67
2019-05-23T07:06:05.078Z,9.15
2019-05-23T07:08:35.417Z,9.53
2019-05-23T07:11:05.687Z,9.70
2019-05-23T07:13:37.550Z,9.63
2019-05-23T07:16:07.734Z,9.45
2019-05-23T07:18:39.021Z,9.95
2019-05-23T07:21:10.286Z,9.05
2019-05-23T07:23:40.858Z,10.13
2019-05-23T07:26:12.865Z,9.75
2019-05-23T07:28:43.754Z,10.40
2019-05-23T07:31:15.236Z,9.40
2019-05-23T07:34:00.309Z,9.33
2019-05-23T07:36:18.093Z,9.80
2019-05-23T07:38:48.545Z,9.15
2019-05-23T07:41:18.710Z,9.43
2019-05-23T07:43:49.217Z,9.38
2019-05-23T07:46:20.359Z,9.00
2019-05-23T07:48:50.729Z,8.88
2019-05-23T07:51:21.358Z,8.83
2019-05-23T07:54:11.625Z,8.43
2019-05-23T07:56:43.634Z,8.75
2019-05-23T07:59:13.853Z,9.25
2019-05-23T08:01:49.401Z,8.40
2019-05-23T08:04:21.952Z,9.43
2019-05-23T08:06:52.451Z,9.85
2019-05-23T08:09:24.368Z,8.28
2019-05-23T08:11:54.580Z,9.53
2019-05-23T08:14:25.232Z,8.30
2019-05-23T08:16:55.720Z,9.00
2019-05-23T08:19:25.868Z,8.53
2019-05-23T08:21:55.983Z,9.45
2019-05-23T08:24:27.055Z,8.65
2019-05-23T08:26:57.680Z,8.93
2019-05-23T08:29:28.933Z,9.00
2019-05-23T08:31:59.734Z,7.85
2019-05-23T08:34:41.244Z,8.45
2019-05-23T08:37:04.773Z,9.00
2019-05-23T08:39:36.238Z,8.35
2019-05-23T08:42:08.367Z,7.47
2019-05-23T08:44:39.093Z,7.12
2019-05-23T08:47:10.829Z,7.72
2019-05-23T08:49:41.642Z,7.25
2019-05-23T08:52:12.971Z,7.62
2019-05-23T08:54:45.648Z,6.72
2019-05-23T08:57:17.126Z,7.10
2019-05-23T08:59:47.931Z,6.42
2019-05-23T09:02:18.733Z,7.60
2019-05-23T09:05:03.590Z,7.45
2019-05-23T09:07:21.612Z,8.85
2019-05-23T09:09:52.431Z,8.18
2019-05-23T09:12:23.835Z,7.75
2019-05-23T09:14:54.130Z,6.00
2019-05-23T09:17:24.390Z,6.80
2019-05-23T09:19:55.238Z,6.03
2019-05-23T09:22:25.643Z,5.17
2019-05-23T09:24:56.854Z,6.10
2019-05-23T09:27:27.450Z,4.90
2019-05-23T09:29:58.269Z,5.50
2019-05-23T09:32:28.822Z,4.12
2019-05-23T09:34:59.027Z,3.45
2019-05-23T09:37:30.545Z,4.10
2019-05-23T09:40:00.794Z,4.45
2019-05-23T09:42:31.242Z,4.42
2019-05-23T09:45:01.737Z,3.15
2019-05-23T09:47:32.314Z,3.70
2019-05-23T09:50:03.173Z,3.60
2019-05-23T09:52:34.634Z,4.33
2019-05-23T09:55:05.400Z,4.37
2019-05-23T09:57:36.377Z,3.75
2019-05-23T10:00:09.302Z,2.67
2019-05-23T10:02:40.259Z,3.30
2019-05-23T10:05:12.174Z,2.60
2019-05-23T10:07:42.454Z,3.17
2019-05-23T10:10:13.895Z,2.90
2019-05-23T10:12:44.800Z,3.02
2019-05-23T10:15:34.659Z,2.83
2019-05-23T10:18:05.391Z,2.55
2019-05-23T10:20:36.595Z,2.20
2019-05-23T10:23:07.111Z,2.10
2019-05-23T10:25:37.368Z,2.45
2019-05-23T10:28:07.924Z,2.50
2019-05-23T10:30:38.581Z,2.45
2019-05-23T10:33:12.199Z,3.20
2019-05-23T10:35:58.543Z,3.40
2019-05-23T10:38:13.416Z,3.40
2019-05-23T10:40:44.056Z,2.95
2019-05-23T10:43:14.607Z,8.00
2019-05-23T10:45:45.050Z,2.85
2019-05-23T10:48:15.520Z,2.00
2019-05-23T10:50:45.701Z,2.50
2019-05-23T10:53:16.004Z,2.27
2019-05-23T10:55:47.293Z,2.08
2019-05-23T10:58:17.512Z,2.37
2019-05-23T11:00:48.751Z,2.12
2019-05-23T11:03:19.096Z,2.00
2019-05-23T11:05:50.060Z,2.62
2019-05-23T11:08:20.696Z,4.25
2019-05-23T11:10:51.266Z,2.22
2019-05-23T11:13:21.915Z,1.98
2019-05-23T11:15:52.639Z,1.50
2019-05-23T11:18:23.114Z,1.50
2019-05-23T11:20:53.281Z,1.50
2019-05-23T11:23:30.555Z,2.05
2019-05-23T11:26:01.590Z,1.50
2019-05-23T11:28:35.231Z,1.95
2019-05-23T11:31:07.787Z,1.90
2019-05-23T11:33:40.073Z,1.95
2019-05-23T11:36:11.173Z,3.37
2019-05-23T11:38:41.488Z,1.98
2019-05-23T11:41:11.962Z,2.30
2019-05-23T11:43:43.018Z,1.98
2019-05-23T11:46:36.273Z,1.60
2019-05-23T11:49:07.831Z,2.25
2019-05-23T11:51:38.628Z,1.67
2019-05-23T11:54:09.941Z,1.87
2019-05-23T11:56:42.410Z,2.02
2019-05-23T11:59:13.029Z,1.95
2019-05-23T12:01:57.462Z,1.77
2019-05-23T12:04:32.166Z,1.80
2019-05-23T12:07:08.702Z,1.98
2019-05-23T12:09:39.264Z,2.65
2019-05-23T12:12:09.963Z,2.77
2019-05-23T12:14:40.580Z,2.95
2019-05-23T12:17:11.486Z,2.60
2019-05-23T12:19:41.868Z,2.22
2019-05-23T12:22:13.547Z,2.42
2019-05-23T12:24:44.743Z,2.08
2019-05-23T12:27:15.236Z,2.15
2019-05-23T12:29:45.477Z,2.27
2019-05-23T12:32:16.163Z,2.08
2019-05-23T12:35:08.043Z,2.00
2019-05-23T12:37:20.489Z,1.70
2019-05-23T12:39:51.501Z,1.60
2019-05-23T12:42:21.735Z,1.80
2019-05-23T12:44:51.855Z,1.55
2019-05-23T12:47:29.568Z,1.87
2019-05-23T12:50:09.570Z,2.22
2019-05-23T12:52:39.748Z,2.05
2019-05-23T12:55:10.146Z,2.20
2019-05-23T12:57:40.536Z,2.70
2019-05-23T13:00:20.763Z,2.40
2019-05-23T13:02:52.631Z,2.62
2019-05-23T13:05:22.987Z,2.30
2019-05-23T13:07:53.315Z,2.30
2019-05-23T13:10:25.088Z,1.80
2019-05-23T13:12:55.742Z,1.70
2019-05-23T13:15:26.087Z,1.70
2019-05-23T13:17:56.413Z,2.00
2019-05-23T13:20:27.097Z,2.70
2019-05-23T13:22:57.240Z,2.55
2019-05-23T13:25:28.937Z,1.40
2019-05-23T13:28:00.065Z,1.50
2019-05-23T13:30:31.315Z,1.60
2019-05-23T13:33:03.789Z,1.67
2019-05-23T13:35:34.682Z,1.80
2019-05-23T13:38:05.140Z,2.10
2019-05-23T13:40:35.330Z,1.82
2019-05-23T13:43:08.376Z,3.10
2019-05-23T13:45:40.234Z,1.87
2019-05-23T13:48:12.763Z,1.40
2019-05-23T13:50:43.010Z,1.90
2019-05-23T13:53:13.954Z,1.42
2019-05-23T13:55:44.279Z,1.50
2019-05-23T13:58:14.656Z,1.40
2019-05-23T14:00:48.732Z,1.37
2019-05-23T14:03:19.444Z,1.42
2019-05-23T14:05:49.684Z,2.37
2019-05-23T14:08:20.311Z,1.35
2019-05-23T14:10:50.909Z,1.92
2019-05-23T14:13:22.558Z,1.50
2019-05-23T14:15:53.855Z,1.60
2019-05-23T14:18:25.870Z,1.55
2019-05-23T14:20:56.344Z,1.70
2019-05-23T14:23:30.238Z,2.00
2019-05-23T14:26:01.683Z,1.67
2019-05-23T14:28:32.652Z,1.82
2019-05-23T14:31:21.055Z,1.50
2019-05-23T14:33:57.478Z,2.00
2019-05-23T14:36:49.242Z,1.92
2019-05-23T14:39:27.280Z,2.37
2019-05-23T14:42:02.512Z,2.58
2019-05-23T14:44:32.607Z,3.22
2019-05-23T14:47:21.157Z,2.45
2019-05-23T14:50:00.504Z,2.67
2019-05-23T14:52:35.731Z,2.83
2019-05-23T14:55:10.415Z,3.22
2019-05-23T14:57:41.106Z,3.35
2019-05-23T15:00:11.667Z,3.58
2019-05-23T15:02:42.250Z,2.87
2019-05-23T15:05:13.070Z,3.12
2019-05-23T15:07:43.781Z,4.40
2019-05-23T15:10:15.857Z,3.42
2019-05-23T15:12:46.519Z,3.22
2019-05-23T15:15:17.373Z,4.28
2019-05-23T15:17:48.081Z,3.60
2019-05-23T15:20:20.074Z,4.28
2019-05-23T15:22:50.501Z,3.90
2019-05-23T15:25:21.110Z,3.72
2019-05-23T15:27:51.220Z,4.03
2019-05-23T15:30:22.942Z,3.40
2019-05-23T15:32:53.186Z,2.60
2019-05-23T15:35:23.607Z,3.00
2019-05-23T15:37:53.901Z,3.60
2019-05-23T15:40:24.491Z,3.87
2019-05-23T15:42:55.355Z,3.87
2019-05-23T15:45:25.723Z,3.10
2019-05-23T15:47:56.565Z,3.58
2019-05-23T15:50:31.625Z,3.65
2019-05-23T15:53:20.825Z,3.33
2019-05-23T15:56:26.769Z,4.00
2019-05-23T15:58:49.908Z,3.47
2019-05-23T16:01:26.681Z,3.27
2019-05-23T16:04:00.282Z,3.50
2019-05-23T16:06:32.838Z,3.33
2019-05-23T16:09:03.278Z,3.55
2019-05-23T16:11:33.624Z,3.33
2019-05-23T16:14:04.074Z,4.17
2019-05-23T16:16:34.477Z,2.72
2019-05-23T16:19:04.790Z,3.10
2019-05-23T16:21:36.227Z,3.22
2019-05-23T16:24:07.848Z,4.08
2019-05-23T16:26:38.604Z,3.67
2019-05-23T16:29:10.321Z,3.35
2019-05-23T16:31:41.067Z,3.02
2019-05-23T16:34:12.354Z,3.50
2019-05-23T16:36:43.323Z,3.40
2019-05-23T16:39:13.594Z,3.20
2019-05-23T16:41:43.873Z,3.30
2019-05-23T16:44:14.624Z,2.80
2019-05-23T16:46:44.895Z,3.20
2019-05-23T16:49:15.510Z,2.90
2019-05-23T16:51:46.007Z,3.08
2019-05-23T16:54:18.189Z,3.30
2019-05-23T16:56:55.446Z,2.75
2019-05-23T16:59:33.268Z,2.80
2019-05-23T17:02:21.392Z,2.87
2019-05-23T17:05:09.370Z,4.50
2019-05-23T17:07:51.171Z,3.55
2019-05-23T17:10:33.028Z,4.15
2019-05-23T17:13:32.796Z,4.00
2019-05-23T17:16:10.081Z,3.95
2019-05-23T17:18:59.329Z,4.20
2019-05-23T17:21:38.878Z,4.00
2019-05-23T17:24:26.717Z,4.05
2019-05-23T17:27:08.255Z,3.33
2019-05-23T17:29:44.852Z,3.40
2019-05-23T17:32:19.976Z,3.00
2019-05-23T17:34:50.395Z,2.95
2019-05-23T17:37:21.644Z,2.65
2019-05-23T17:39:53.645Z,3.70
2019-05-23T17:42:23.949Z,3.00
2019-05-23T17:44:54.143Z,3.60
2019-05-23T17:47:25.473Z,2.77
2019-05-23T17:49:56.033Z,2.70
2019-05-23T17:52:26.230Z,3.20
2019-05-23T17:54:56.402Z,4.40
2019-05-23T17:57:27.664Z,4.12
2019-05-23T17:59:58.127Z,3.15
2019-05-23T18:02:28.928Z,3.62
2019-05-23T18:04:59.413Z,3.37
2019-05-23T18:07:30.492Z,3.05
2019-05-23T18:10:03.762Z,3.52
2019-05-23T18:12:34.087Z,3.22
2019-05-23T18:15:04.698Z,3.27
2019-05-23T18:17:34.923Z,3.22
2019-05-23T18:20:05.714Z,3.50
2019-05-23T18:22:37.196Z,3.72
2019-05-23T18:25:09.964Z,3.80
2019-05-23T18:27:40.926Z,3.60
2019-05-23T18:30:20.491Z,3.12
2019-05-23T18:32:51.279Z,3.30
2019-05-23T18:35:23.402Z,3.00
2019-05-23T18:37:54.363Z,2.70
2019-05-23T18:40:24.855Z,2.72
2019-05-23T18:42:55.188Z,2.67
2019-05-23T18:45:28.231Z,2.55
2019-05-23T18:47:58.639Z,2.75
2019-05-23T18:50:30.263Z,2.72
2019-05-23T18:53:00.718Z,2.55
2019-05-23T18:55:31.894Z,2.85
2019-05-23T18:58:02.370Z,2.65
2019-05-23T19:01:00.513Z,2.87
2019-05-23T19:03:31.300Z,2.67
2019-05-23T19:06:02.018Z,2.50
2019-05-23T19:08:32.546Z,2.52
2019-05-23T19:11:19.019Z,2.60
2019-05-23T19:13:35.054Z,2.40
2019-05-23T19:16:08.266Z,2.40
2019-05-23T19:18:38.675Z,2.55
2019-05-23T19:21:11.211Z,2.45
2019-05-23T19:23:42.369Z,2.72
2019-05-23T19:26:12.582Z,2.58
2019-05-23T19:28:43.186Z,2.22
2019-05-23T19:31:17.607Z,2.22
2019-05-23T19:33:50.507Z,2.55
2019-05-23T19:36:21.957Z,2.10
2019-05-23T19:38:52.237Z,2.40
2019-05-23T19:41:35.984Z,2.87
2019-05-23T19:43:56.333Z,2.42
2019-05-23T19:46:27.051Z,2.50
2019-05-23T19:48:57.545Z,2.70
2019-05-23T19:51:27.872Z,2.92
2019-05-23T19:53:58.048Z,2.65
2019-05-23T19:56:28.967Z,2.30
2019-05-23T19:58:59.451Z,2.37
2019-05-23T20:01:35.406Z,2.40
2019-05-23T20:04:05.967Z,3.00
2019-05-23T20:06:36.430Z,3.95
2019-05-23T20:09:12.480Z,2.80
2019-05-23T20:11:53.737Z,2.67
2019-05-23T20:14:14.610Z,2.77
2019-05-23T20:16:46.961Z,2.62
2019-05-23T20:19:17.575Z,2.30
2019-05-23T20:21:48.137Z,2.58
2019-05-23T20:24:18.451Z,2.47
2019-05-23T20:26:49.089Z,2.37
2019-05-23T20:29:19.498Z,2.72
2019-05-23T20:31:50.551Z,2.75
2019-05-23T20:34:20.774Z,3.25
2019-05-23T20:36:51.300Z,2.67
2019-05-23T20:39:23.319Z,2.62
2019-05-23T20:42:08.698Z,2.55
2019-05-23T20:44:25.521Z,2.83
2019-05-23T20:46:56.182Z,2.85
2019-05-23T20:49:27.329Z,2.90
2019-05-23T20:51:58.212Z,3.20
2019-05-23T20:54:28.770Z,3.08
2019-05-23T20:56:58.978Z,2.85
2019-05-23T20:59:29.140Z,3.00
2019-05-23T21:01:59.432Z,2.62
2019-05-23T21:04:29.829Z,3.00
2019-05-23T21:07:00.031Z,2.70
2019-05-23T21:09:30.472Z,2.65
2019-05-23T21:12:00.621Z,2.47
2019-05-23T21:14:30.739Z,3.12
2019-05-23T21:17:01.145Z,2.65
2019-05-23T21:19:31.961Z,2.83
2019-05-23T21:22:02.292Z,3.08
2019-05-23T21:24:34.048Z,2.80
2019-05-23T21:27:04.100Z,2.70
2019-05-23T21:29:34.546Z,3.00
2019-05-23T21:32:04.988Z,3.12
2019-05-23T21:34:35.128Z,3.05
2019-05-23T21:37:05.245Z,3.10
2019-05-23T21:39:35.787Z,3.20
2019-05-23T21:42:06.002Z,3.50
2019-05-23T21:44:36.047Z,3.75
2019-05-23T21:47:06.281Z,3.30
2019-05-23T21:49:39.081Z,3.20
2019-05-23T21:52:09.727Z,3.02
2019-05-23T21:54:39.881Z,3.30
2019-05-23T21:57:10.235Z,3.40
2019-05-23T21:59:40.402Z,4.00
2019-05-23T22:02:19.463Z,3.35
2019-05-23T22:04:52.922Z,3.62
2019-05-23T22:07:23.411Z,3.42
2019-05-23T22:09:53.467Z,3.17
2019-05-23T22:12:24.004Z,3.47
2019-05-23T22:14:55.719Z,3.17
2019-05-23T22:17:27.064Z,4.05
2019-05-23T22:19:57.629Z,3.52
2019-05-23T22:22:27.853Z,3.60
2019-05-23T22:24:57.990Z,3.70
2019-05-23T22:27:28.947Z,3.95
2019-05-23T22:29:59.134Z,3.67
2019-05-23T22:32:31.178Z,4.10
2019-05-23T22:35:05.423Z,3.45
2019-05-23T22:37:35.631Z,3.70
2019-05-23T22:40:06.807Z,3.95
2019-05-23T22:42:37.425Z,4.12
2019-05-23T22:45:12.799Z,4.08
2019-05-23T22:47:42.919Z,3.95
2019-05-23T22:50:14.462Z,3.62
2019-05-23T22:52:44.672Z,4.00
2019-05-23T22:55:14.945Z,3.65
2019-05-23T22:57:45.070Z,3.72
2019-05-23T23:00:16.866Z,4.15
2019-05-23T23:02:47.379Z,4.30
2019-05-23T23:05:17.542Z,4.12
2019-05-23T23:07:48.248Z,5.17
2019-05-23T23:10:18.948Z,4.28
2019-05-23T23:12:49.187Z,4.33
2019-05-23T23:15:19.782Z,4.17
2019-05-23T23:17:49.909Z,4.28
2019-05-23T23:20:20.031Z,4.28
2019-05-23T23:22:50.805Z,4.40
2019-05-23T23:25:21.303Z,5.55
2019-05-23T23:27:51.771Z,5.42
2019-05-23T23:30:25.906Z,5.20
2019-05-23T23:32:56.057Z,4.90
2019-05-23T23:35:26.580Z,5.58
2019-05-23T23:37:56.951Z,5.55
2019-05-23T23:40:27.387Z,6.30
2019-05-23T23:42:57.540Z,5.83
2019-05-23T23:45:46.023Z,5.30
2019-05-23T23:48:34.164Z,5.72
2019-05-23T23:51:22.165Z,6.03
2019-05-23T23:54:10.182Z,5.85
2019-05-23T23:56:57.969Z,5.78
2019-05-23T23:59:27.762Z,5.80
